Time;durP1;ratioP1;P1;durP2;ratioP2;P2;SDS_P1;SDS_P2;PMS_P1;PMS_P2;Temp;Humidity;BMP_temperature;BMP_pressure;BME280_temperature;BME280_humidity;BME280_pressure;Samples;Min_cycle;Max_cycle;Signal;HPM_P1;HPM_P2
2020/12/05 00:01:43;;;;;;;;;;;2.60;99.90;;;;;;5115497;28;19974;-74
2020/12/05 00:04:09;;;;;;;;;;;2.60;99.90;;;;;;5113843;28;20027;-74
2020/12/05 00:06:35;;;;;;;;;;;2.50;99.90;;;;;;5116279;28;19931;-75
2020/12/05 00:09:01;;;;;;;;;;;2.50;99.90;;;;;;5116156;28;20010;-74
2020/12/05 00:11:29;;;;;;;;;;;2.50;99.90;;;;;;5114078;28;19924;-75
2020/12/05 00:13:55;;;;;;;;;;;2.60;99.90;;;;;;5115410;28;20350;-74
2020/12/05 00:16:23;;;;;;;;;;;2.60;99.90;;;;;;5113749;28;20360;-74
2020/12/05 00:18:53;;;;;;;;;;;2.50;99.90;;;;;;5115320;28;19970;-74
2020/12/05 00:21:20;;;;;;;;;;;2.70;99.90;;;;;;5113720;28;19924;-74
2020/12/05 00:23:46;;;;;;;;;;;2.70;99.90;;;;;;5096806;28;19963;-75
2020/12/05 00:26:14;;;;;;;;;;;2.60;99.90;;;;;;5113183;28;19923;-74
2020/12/05 00:28:40;;;;;;;;;;;2.60;99.90;;;;;;5114961;28;19931;-75
2020/12/05 00:31:07;;;;;;;;;;;2.70;99.90;;;;;;5113275;28;19955;-74
2020/12/05 00:33:34;;;;;;;;;;;2.80;99.90;;;;;;5114691;28;19931;-80
2020/12/05 00:36:01;;;;;;;;;;;2.80;99.90;;;;;;5112977;28;20003;-74
2020/12/05 00:38:28;;;;;;;;;;;2.80;99.90;;;;;;5115656;28;19923;-74
2020/12/05 00:40:54;;;;;;;;;;;2.80;99.90;;;;;;5112485;28;20406;-75
2020/12/05 00:43:20;;;;;;;;;;;2.80;99.90;;;;;;5115467;28;20023;-74
2020/12/05 00:45:47;;;;;;;;;;;2.90;99.90;;;;;;5111829;28;19981;-74
2020/12/05 00:48:14;;;;;;;;;;;2.90;99.90;;;;;;5097203;28;19927;-75
2020/12/05 00:50:42;;;;;;;;;;;2.90;99.90;;;;;;5096114;28;19924;-74
2020/12/05 00:53:08;;;;;;;;;;;2.90;99.90;;;;;;5094991;28;19923;-74
2020/12/05 00:55:35;;;;;;;;;;;2.90;99.90;;;;;;5096225;28;20035;-75
2020/12/05 00:58:01;;;;;;;;;;;2.90;99.90;;;;;;5112759;28;19923;-74
2020/12/05 01:00:28;;;;;;;;;;;2.80;99.90;;;;;;5114893;28;19924;-74
2020/12/05 01:02:54;;;;;;;;;;;2.80;99.90;;;;;;5111887;28;20366;-74
2020/12/05 01:05:20;;;;;;;;;;;2.80;99.90;;;;;;5114988;28;20081;-74
2020/12/05 01:07:47;;;;;;;;;;;2.80;99.90;;;;;;5111689;28;20425;-75
2020/12/05 01:10:14;;;;;;;;;;;2.80;99.90;;;;;;5114360;28;20474;-74
2020/12/05 01:12:40;;;;;;;;;;;2.90;99.90;;;;;;5112167;28;20010;-74
2020/12/05 01:15:06;;;;;;;;;;;2.90;99.90;;;;;;5115133;28;20102;-74
2020/12/05 01:17:35;;;;;;;;;;;2.90;99.90;;;;;;5112608;28;20372;-74
2020/12/05 01:20:02;;;;;;;;;;;2.80;99.90;;;;;;5114695;28;19924;-74
2020/12/05 01:22:28;;;;;;;;;;;2.80;99.90;;;;;;5112316;28;19955;-74
2020/12/05 01:24:56;;;;;;;;;;;2.80;99.90;;;;;;5113894;28;20008;-74
2020/12/05 01:27:22;;;;;;;;;;;2.80;99.90;;;;;;5112536;28;19924;-74
2020/12/05 01:29:48;;;;;;;;;;;2.70;99.90;;;;;;5114171;28;20018;-74
2020/12/05 01:32:15;;;;;;;;;;;2.70;99.90;;;;;;5115435;28;19971;-74
2020/12/05 01:34:41;;;;;;;;;;;2.60;99.90;;;;;;5111762;28;19924;-75
2020/12/05 01:37:08;;;;;;;;;;;2.60;99.90;;;;;;5114649;28;19977;-75
2020/12/05 01:39:34;;;;;;;;;;;2.50;99.90;;;;;;5111550;28;19927;-75
2020/12/05 01:42:01;;;;;;;;;;;2.60;99.90;;;;;;5096064;28;19924;-75
2020/12/05 01:44:28;;;;;;;;;;;2.60;99.90;;;;;;5093410;28;19974;-75
2020/12/05 01:46:54;;;;;;;;;;;2.50;99.90;;;;;;5113931;28;19928;-75
2020/12/05 01:49:22;;;;;;;;;;;2.30;99.90;;;;;;5111493;28;19969;-75
2020/12/05 01:51:49;;;;;;;;;;;2.20;99.90;;;;;;5113430;28;19930;-75
2020/12/05 01:54:16;;;;;;;;;;;2.20;99.90;;;;;;5093315;28;19924;-75
2020/12/05 01:56:43;;;;;;;;;;;2.10;99.90;;;;;;5113575;28;20019;-75
2020/12/05 01:59:11;;;;;;;;;;;1.90;99.90;;;;;;5111176;28;19924;-75
2020/12/05 02:01:39;;;;;;;;;;;1.80;99.90;;;;;;5095003;28;20284;-77
2020/12/05 02:04:05;;;;;;;;;;;1.80;99.90;;;;;;5111120;28;20000;-76
2020/12/05 02:06:37;;;;;;;;;;;1.80;99.90;;;;;;5114205;28;19924;-75
2020/12/05 02:09:05;;;;;;;;;;;1.90;99.90;;;;;;5110807;28;20018;-75
2020/12/05 02:11:33;;;;;;;;;;;1.90;99.90;;;;;;5113827;28;19930;-74
2020/12/05 02:14:01;;;;;;;;;;;1.90;99.90;;;;;;5111155;28;19977;-76
2020/12/05 02:16:30;;;;;;;;;;;1.80;99.90;;;;;;5112933;28;19970;-75
2020/12/05 02:18:58;;;;;;;;;;;1.70;99.90;;;;;;5113404;28;20434;-76
2020/12/05 02:21:27;;;;;;;;;;;1.70;99.90;;;;;;5110852;28;20056;-76
2020/12/05 02:23:54;;;;;;;;;;;1.60;99.90;;;;;;5112840;28;19977;-75
2020/12/05 02:26:21;;;;;;;;;;;1.70;99.90;;;;;;5111368;28;19930;-75
2020/12/05 02:28:48;;;;;;;;;;;1.60;99.90;;;;;;5113157;28;19931;-75
2020/12/05 02:31:15;;;;;;;;;;;1.60;99.90;;;;;;5092613;28;19934;-75
2020/12/05 02:33:41;;;;;;;;;;;1.60;99.90;;;;;;5112326;28;20441;-75
2020/12/05 02:36:07;;;;;;;;;;;1.60;99.90;;;;;;5111169;28;20049;-75
2020/12/05 02:38:36;;;;;;;;;;;1.60;99.90;;;;;;5094443;28;20380;-75
2020/12/05 02:41:03;;;;;;;;;;;1.50;99.90;;;;;;5092469;28;19947;-75
2020/12/05 02:43:30;;;;;;;;;;;1.50;99.90;;;;;;5113240;28;20300;-76
2020/12/05 02:45:56;;;;;;;;;;;1.50;99.90;;;;;;5109621;28;19959;-75
2020/12/05 02:48:22;;;;;;;;;;;1.50;99.90;;;;;;5113278;28;20398;-75
2020/12/05 02:50:49;;;;;;;;;;;1.50;99.90;;;;;;5110025;28;19927;-75
2020/12/05 02:53:15;;;;;;;;;;;1.50;99.90;;;;;;5113043;28;19924;-75
2020/12/05 02:55:41;;;;;;;;;;;1.50;99.90;;;;;;5110244;28;19955;-76
2020/12/05 02:58:09;;;;;;;;;;;1.50;99.90;;;;;;5113436;28;19971;-76
2020/12/05 03:00:35;;;;;;;;;;;1.40;99.90;;;;;;5112098;28;20376;-76
2020/12/05 03:03:02;;;;;;;;;;;1.50;99.90;;;;;;5110271;28;20284;-76
2020/12/05 03:05:28;;;;;;;;;;;1.60;99.90;;;;;;5112767;28;19923;-76
2020/12/05 03:07:55;;;;;;;;;;;1.50;99.90;;;;;;5109605;28;20027;-76
2020/12/05 03:10:21;;;;;;;;;;;1.50;99.90;;;;;;5094006;28;20026;-76
2020/12/05 03:12:47;;;;;;;;;;;1.50;99.90;;;;;;5091582;28;19924;-76
2020/12/05 03:15:14;;;;;;;;;;;1.50;99.90;;;;;;5112798;28;19924;-76
2020/12/05 03:17:41;;;;;;;;;;;1.50;99.90;;;;;;5109270;28;19923;-76
2020/12/05 03:20:07;;;;;;;;;;;1.50;99.90;;;;;;5112746;28;20026;-75
2020/12/05 03:22:33;;;;;;;;;;;1.50;99.90;;;;;;5091521;28;19953;-79
2020/12/05 03:25:00;;;;;;;;;;;1.50;99.90;;;;;;5114967;28;19932;-75
2020/12/05 03:27:27;;;;;;;;;;;1.50;99.90;;;;;;5096288;28;19924;-77
2020/12/05 03:29:54;;;;;;;;;;;1.50;99.90;;;;;;5116191;28;20148;-75
2020/12/05 03:32:24;;;;;;;;;;;1.50;99.90;;;;;;5114730;28;19930;-75
2020/12/05 03:34:51;;;;;;;;;;;1.40;99.90;;;;;;5116167;28;20015;-77
2020/12/05 03:37:17;;;;;;;;;;;1.30;99.90;;;;;;5096377;28;19949;-75
2020/12/05 03:39:44;;;;;;;;;;;1.30;99.90;;;;;;5098029;28;19931;-75
2020/12/05 03:42:10;;;;;;;;;;;1.50;99.90;;;;;;5116613;28;19963;-75
2020/12/05 03:44:37;;;;;;;;;;;1.50;99.90;;;;;;5113265;28;19924;-75
2020/12/05 03:47:04;;;;;;;;;;;1.40;99.90;;;;;;5116335;28;19923;-75
2020/12/05 03:49:32;;;;;;;;;;;1.40;99.90;;;;;;5113809;28;19930;-76
2020/12/05 03:51:59;;;;;;;;;;;1.30;99.90;;;;;;5116296;28;20376;-75
2020/12/05 03:54:25;;;;;;;;;;;1.20;99.90;;;;;;5114233;28;20369;-75
2020/12/05 03:56:51;;;;;;;;;;;1.10;99.90;;;;;;5097642;28;19963;-75
2020/12/05 03:59:18;;;;;;;;;;;1.10;99.90;;;;;;5095730;28;20283;-76
2020/12/05 04:01:44;;;;;;;;;;;1.10;99.90;;;;;;5115746;28;19978;-75
2020/12/05 04:04:10;;;;;;;;;;;1.20;99.90;;;;;;5095709;28;19924;-75
2020/12/05 04:06:38;;;;;;;;;;;1.10;99.90;;;;;;5115638;28;20356;-76
2020/12/05 04:09:04;;;;;;;;;;;1.10;99.90;;;;;;5113306;28;19959;-75
2020/12/05 04:11:30;;;;;;;;;;;1.10;99.90;;;;;;5116197;28;19924;-75
2020/12/05 04:13:57;;;;;;;;;;;1.10;99.90;;;;;;5113201;28;20026;-75
2020/12/05 04:16:23;;;;;;;;;;;1.00;99.90;;;;;;5097964;28;19932;-75
2020/12/05 04:18:50;;;;;;;;;;;1.00;99.90;;;;;;5113813;28;19924;-76
2020/12/05 04:21:16;;;;;;;;;;;1.00;99.90;;;;;;5115516;28;19976;-75
2020/12/05 04:23:43;;;;;;;;;;;1.00;99.90;;;;;;5115291;28;19974;-77
2020/12/05 04:26:09;;;;;;;;;;;1.00;99.90;;;;;;5095290;28;19963;-75
2020/12/05 04:28:36;;;;;;;;;;;1.00;99.90;;;;;;5115407;28;20030;-76
2020/12/05 04:31:02;;;;;;;;;;;1.10;99.90;;;;;;5113075;28;20364;-76
2020/12/05 04:33:28;;;;;;;;;;;1.00;99.90;;;;;;5097473;28;19960;-76
2020/12/05 04:35:55;;;;;;;;;;;1.00;99.90;;;;;;5111745;28;19927;-75
2020/12/05 04:38:21;;;;;;;;;;;1.00;99.90;;;;;;5115830;28;19930;-75
2020/12/05 04:40:48;;;;;;;;;;;1.00;99.90;;;;;;5112536;28;20014;-75
2020/12/05 04:43:15;;;;;;;;;;;0.90;99.90;;;;;;5115491;28;19951;-75
2020/12/05 04:45:42;;;;;;;;;;;0.90;99.90;;;;;;5112166;28;19924;-75
2020/12/05 04:48:09;;;;;;;;;;;0.90;99.90;;;;;;5115754;28;20092;-75
2020/12/05 04:50:35;;;;;;;;;;;0.90;99.90;;;;;;5112746;28;19950;-76
2020/12/05 04:53:07;;;;;;;;;;;0.90;99.90;;;;;;5115689;28;19924;-76
2020/12/05 04:55:38;;;;;;;;;;;0.90;99.90;;;;;;5094150;28;20014;-78
2020/12/05 04:58:05;;;;;;;;;;;0.90;99.90;;;;;;5097165;28;19928;-76
2020/12/05 05:00:32;;;;;;;;;;;0.90;99.90;;;;;;5113002;28;19924;-76
2020/12/05 05:02:59;;;;;;;;;;;0.90;99.90;;;;;;5114938;28;20336;-76
2020/12/05 05:05:26;;;;;;;;;;;0.80;99.90;;;;;;5115445;28;20296;-76
2020/12/05 05:07:54;;;;;;;;;;;0.90;99.90;;;;;;5093812;28;20269;-76
2020/12/05 05:10:23;;;;;;;;;;;0.90;99.90;;;;;;5114508;28;20021;-76
2020/12/05 05:12:50;;;;;;;;;;;0.90;99.90;;;;;;5112128;28;19928;-75
2020/12/05 05:15:29;;;;;;;;;;;0.90;99.90;;;;;;5115091;28;20022;-75
2020/12/05 05:17:56;;;;;;;;;;;0.90;99.90;;;;;;5111782;28;20107;-75
2020/12/05 05:20:22;;;;;;;;;;;0.90;99.90;;;;;;5115483;28;19973;-76
2020/12/05 05:22:50;;;;;;;;;;;0.90;99.90;;;;;;5111848;28;19924;-76
2020/12/05 05:25:16;;;;;;;;;;;0.90;99.90;;;;;;5096601;28;20380;-76
2020/12/05 05:27:56;;;;;;;;;;;1.00;99.90;;;;;;5111301;28;20427;-76
2020/12/05 05:30:24;;;;;;;;;;;1.00;99.90;;;;;;5114985;28;19966;-76
2020/12/05 05:32:52;;;;;;;;;;;1.00;99.90;;;;;;5111315;28;19924;-76
2020/12/05 05:35:18;;;;;;;;;;;1.10;99.90;;;;;;5096478;28;20018;-75
2020/12/05 05:37:45;;;;;;;;;;;1.00;99.90;;;;;;5111625;28;19932;-76
2020/12/05 05:40:13;;;;;;;;;;;1.00;99.90;;;;;;5114588;28;19970;-76
2020/12/05 05:42:40;;;;;;;;;;;1.00;99.90;;;;;;5111251;28;19977;-76
2020/12/05 05:45:17;;;;;;;;;;;1.00;99.90;;;;;;5114279;28;20360;-75
2020/12/05 05:47:45;;;;;;;;;;;1.00;99.90;;;;;;5110400;28;19928;-76
2020/12/05 05:50:22;;;;;;;;;;;1.00;99.90;;;;;;5113983;28;19931;-75
2020/12/05 05:52:55;;;;;;;;;;;1.00;99.90;;;;;;5111209;28;19932;-76
2020/12/05 05:55:22;;;;;;;;;;;1.10;99.90;;;;;;5114651;28;19923;-75
2020/12/05 05:57:48;;;;;;;;;;;1.10;99.90;;;;;;5110815;28;19924;-77
2020/12/05 06:00:15;;;;;;;;;;;0.90;99.90;;;;;;5114025;28;19934;-75
2020/12/05 06:02:48;;;;;;;;;;;0.90;99.90;;;;;;5113219;28;19989;-76
2020/12/05 06:05:17;;;;;;;;;;;1.00;99.90;;;;;;5094979;28;19954;-74
2020/12/05 06:07:43;;;;;;;;;;;0.90;99.90;;;;;;5113091;28;20417;-74
2020/12/05 06:10:10;;;;;;;;;;;1.00;99.90;;;;;;5092815;28;19955;-76
2020/12/05 06:12:37;;;;;;;;;;;0.90;99.90;;;;;;5112987;28;20498;-76
2020/12/05 06:15:03;;;;;;;;;;;0.90;99.90;;;;;;5111540;28;19959;-75
2020/12/05 06:17:29;;;;;;;;;;;0.90;99.90;;;;;;5113408;28;20376;-75
2020/12/05 06:19:56;;;;;;;;;;;0.90;99.90;;;;;;5092349;28;19927;-76
2020/12/05 06:22:25;;;;;;;;;;;1.00;99.90;;;;;;5113792;28;19977;-76
2020/12/05 06:24:54;;;;;;;;;;;0.90;99.90;;;;;;5110553;28;19924;-74
2020/12/05 06:27:21;;;;;;;;;;;1.10;99.90;;;;;;5113994;28;20398;-74
2020/12/05 06:29:48;;;;;;;;;;;1.00;99.90;;;;;;5110408;28;19931;-74
2020/12/05 06:32:36;;;;;;;;;;;1.00;99.90;;;;;;5113744;28;20112;-75
2020/12/05 06:35:02;;;;;;;;;;;1.00;99.90;;;;;;5099828;28;19976;-75
2020/12/05 06:37:35;;;;;;;;;;;1.00;99.90;;;;;;5112369;28;20147;-76
2020/12/05 06:40:02;;;;;;;;;;;1.00;99.90;;;;;;5111305;28;19927;-75
2020/12/05 06:42:28;;;;;;;;;;;1.00;99.90;;;;;;5113855;28;20364;-75
2020/12/05 06:44:54;;;;;;;;;;;1.00;99.90;;;;;;5110145;28;19928;-75
2020/12/05 06:47:25;;;;;;;;;;;1.00;99.90;;;;;;5112864;28;19924;-75
2020/12/05 06:49:52;;;;;;;;;;;1.00;99.90;;;;;;5109837;28;19931;-76
2020/12/05 06:52:45;;;;;;;;;;;1.00;99.90;;;;;;5113012;28;19969;-76
2020/12/05 06:55:13;;;;;;;;;;;1.10;99.90;;;;;;5062453;28;20367;-75
2020/12/05 06:57:41;;;;;;;;;;;1.10;99.90;;;;;;5112185;28;19924;-75
2020/12/05 07:00:25;;;;;;;;;;;1.10;99.90;;;;;;5109825;28;19923;-75
2020/12/05 07:02:53;;;;;;;;;;;1.10;99.90;;;;;;5111820;28;19931;-75
2020/12/05 07:05:23;;;;;;;;;;;1.10;99.90;;;;;;5110284;28;19931;-75
2020/12/05 07:07:50;;;;;;;;;;;1.20;99.90;;;;;;5112235;28;19976;-75
2020/12/05 07:10:17;;;;;;;;;;;1.20;99.90;;;;;;5112184;28;19966;-75
2020/12/05 07:12:44;;;;;;;;;;;1.20;99.90;;;;;;5109478;28;19967;-74
2020/12/05 07:15:21;;;;;;;;;;;1.20;99.90;;;;;;5128747;27;20296;-74
2020/12/05 07:17:47;;;;;;;;;;;1.20;99.90;;;;;;5109133;28;20380;-76
2020/12/05 07:20:14;;;;;;;;;;;1.20;99.90;;;;;;5112697;28;19924;-74
2020/12/05 07:22:40;;;;;;;;;;;1.20;99.90;;;;;;5109926;28;20362;-75
2020/12/05 07:25:06;;;;;;;;;;;1.20;99.90;;;;;;5112555;28;19924;-75
2020/12/05 07:27:34;;;;;;;;;;;1.20;99.90;;;;;;5110588;28;19923;-75
2020/12/05 07:30:00;;;;;;;;;;;1.20;99.90;;;;;;5112693;28;19924;-75
2020/12/05 07:32:31;;;;;;;;;;;1.20;99.90;;;;;;5110094;28;19967;-75
2020/12/05 07:34:58;;;;;;;;;;;1.20;99.90;;;;;;5111735;28;20391;-76
2020/12/05 07:37:25;;;;;;;;;;;1.40;99.90;;;;;;5110464;28;19930;-75
2020/12/05 07:39:52;;;;;;;;;;;1.50;99.90;;;;;;5093799;28;19930;-75
2020/12/05 07:42:18;;;;;;;;;;;1.50;99.90;;;;;;5110170;28;19924;-75
2020/12/05 07:44:45;;;;;;;;;;;1.50;99.90;;;;;;5111588;28;19973;-75
2020/12/05 07:47:18;;;;;;;;;;;1.60;99.90;;;;;;5110000;28;19959;-75
2020/12/05 07:49:51;;;;;;;;;;;1.70;99.90;;;;;;5111684;28;19935;-75
2020/12/05 07:52:18;;;;;;;;;;;1.40;99.90;;;;;;5110154;28;20368;-75
2020/12/05 07:54:51;;;;;;;;;;;1.40;99.90;;;;;;5111862;28;19924;-75
2020/12/05 07:57:17;;;;;;;;;;;1.40;99.90;;;;;;5091861;28;20342;-75
2020/12/05 07:59:44;;;;;;;;;;;1.50;99.90;;;;;;5111349;28;19971;-75
2020/12/05 08:02:14;;;;;;;;;;;1.40;99.90;;;;;;5112558;28;19959;-75
2020/12/05 08:04:49;;;;;;;;;;;1.40;99.90;;;;;;5108960;28;20030;-76
2020/12/05 08:07:25;;;;;;;;;;;1.30;99.90;;;;;;5112544;28;19993;-75
2020/12/05 08:09:51;;;;;;;;;;;1.40;99.90;;;;;;5109096;28;19949;-76
2020/12/05 08:12:23;;;;;;;;;;;1.50;99.90;;;;;;5115195;28;19924;-76
2020/12/05 08:14:50;;;;;;;;;;;1.50;99.90;;;;;;5112912;28;19951;-76
2020/12/05 08:17:17;;;;;;;;;;;1.50;99.90;;;;;;5116027;28;20269;-75
2020/12/05 08:19:43;;;;;;;;;;;1.50;99.90;;;;;;5112478;28;19935;-76
2020/12/05 08:22:10;;;;;;;;;;;1.50;99.90;;;;;;5097915;28;19973;-76
2020/12/05 08:24:38;;;;;;;;;;;1.50;99.90;;;;;;5115002;28;20026;-75
2020/12/05 08:27:05;;;;;;;;;;;1.50;99.90;;;;;;5116351;28;19924;-74
2020/12/05 08:29:31;;;;;;;;;;;1.50;99.90;;;;;;5094766;28;19962;-75
2020/12/05 08:31:58;;;;;;;;;;;1.50;99.90;;;;;;5115465;28;19928;-75
2020/12/05 08:34:32;;;;;;;;;;;1.50;99.90;;;;;;5113381;28;19931;-75
2020/12/05 08:37:00;;;;;;;;;;;1.50;99.90;;;;;;5115304;28;19928;-75
2020/12/05 08:39:27;;;;;;;;;;;1.60;99.90;;;;;;5112900;28;19959;-75
2020/12/05 08:41:53;;;;;;;;;;;1.60;99.90;;;;;;5115590;28;19927;-75
2020/12/05 08:44:20;;;;;;;;;;;1.70;99.90;;;;;;5112790;28;20379;-74
2020/12/05 08:46:59;;;;;;;;;;;1.80;99.90;;;;;;5114165;28;19924;-75
2020/12/05 08:49:25;;;;;;;;;;;1.90;99.90;;;;;;5113198;28;19928;-76
2020/12/05 08:51:53;;;;;;;;;;;2.00;99.90;;;;;;5096659;28;19930;-75
2020/12/05 08:54:20;;;;;;;;;;;1.90;99.90;;;;;;5097244;28;19954;-75
2020/12/05 08:56:46;;;;;;;;;;;2.00;99.90;;;;;;5093703;28;19973;-75
2020/12/05 08:59:24;;;;;;;;;;;2.00;99.90;;;;;;5097084;28;20030;-75
2020/12/05 09:01:52;;;;;;;;;;;2.00;99.90;;;;;;5111958;28;19924;-74
2020/12/05 09:04:26;;;;;;;;;;;1.90;99.90;;;;;;5115213;28;19923;-74
2020/12/05 09:06:53;;;;;;;;;;;1.90;99.90;;;;;;5112536;28;19923;-74
2020/12/05 09:09:27;;;;;;;;;;;1.90;99.90;;;;;;5114754;28;19930;-75
2020/12/05 09:12:01;;;;;;;;;;;1.80;99.90;;;;;;5112022;28;20517;-75
2020/12/05 09:14:28;;;;;;;;;;;1.80;99.90;;;;;;5115058;28;19924;-75
2020/12/05 09:16:54;;;;;;;;;;;1.80;99.90;;;;;;5111861;28;20445;-75
2020/12/05 09:19:22;;;;;;;;;;;1.90;99.90;;;;;;5114928;28;20022;-76
2020/12/05 09:21:48;;;;;;;;;;;1.90;99.90;;;;;;5111615;28;19924;-75
2020/12/05 09:24:15;;;;;;;;;;;1.90;99.90;;;;;;5096379;28;19973;-76
2020/12/05 09:26:51;;;;;;;;;;;2.00;99.90;;;;;;5093269;28;20292;-75
2020/12/05 09:29:17;;;;;;;;;;;2.10;99.90;;;;;;5097025;28;20326;-74
2020/12/05 09:31:47;;;;;;;;;;;2.30;99.90;;;;;;5111327;28;19923;-75
2020/12/05 09:34:13;;;;;;;;;;;2.30;99.90;;;;;;5114420;28;20356;-75
2020/12/05 09:36:41;;;;;;;;;;;2.40;99.90;;;;;;5111466;28;19924;-75
2020/12/05 09:39:07;;;;;;;;;;;2.40;99.90;;;;;;5095788;28;19927;-74
2020/12/05 09:41:35;;;;;;;;;;;2.40;99.90;;;;;;5111925;28;19985;-78
2020/12/05 09:44:01;;;;;;;;;;;2.40;99.90;;;;;;5095961;28;19930;-75
2020/12/05 09:46:28;;;;;;;;;;;2.40;99.90;;;;;;5112079;28;20299;-76
2020/12/05 09:48:54;;;;;;;;;;;2.30;99.90;;;;;;5095043;28;20672;-74
2020/12/05 09:51:21;;;;;;;;;;;2.30;99.90;;;;;;5114209;28;19973;-74
2020/12/05 09:53:47;;;;;;;;;;;2.30;99.90;;;;;;5111025;28;19963;-75
2020/12/05 09:56:14;;;;;;;;;;;2.20;99.90;;;;;;5095932;28;19928;-75
2020/12/05 09:58:41;;;;;;;;;;;2.20;99.90;;;;;;5111071;28;19931;-75
2020/12/05 10:01:07;;;;;;;;;;;2.10;99.90;;;;;;5114362;28;20061;-75
2020/12/05 10:03:34;;;;;;;;;;;2.20;99.90;;;;;;5093140;28;20435;-75
2020/12/05 10:06:01;;;;;;;;;;;2.20;99.90;;;;;;5095344;28;20023;-75
2020/12/05 10:08:27;;;;;;;;;;;2.00;99.90;;;;;;5111388;28;19924;-75
2020/12/05 10:10:54;;;;;;;;;;;2.10;99.90;;;;;;5074442;28;20127;-75
2020/12/05 10:13:20;;;;;;;;;;;2.10;99.90;;;;;;5099050;28;19931;-75
2020/12/05 10:15:48;;;;;;;;;;;2.00;99.90;;;;;;5112694;28;20454;-74
2020/12/05 10:18:14;;;;;;;;;;;2.10;99.90;;;;;;5111313;28;19930;-77
2020/12/05 10:20:40;;;;;;;;;;;2.30;99.90;;;;;;5112820;28;19923;-75
2020/12/05 10:23:07;;;;;;;;;;;2.40;99.90;;;;;;5092932;28;21293;-74
2020/12/05 10:25:33;;;;;;;;;;;2.50;99.90;;;;;;5113105;28;19934;-75
2020/12/05 10:28:00;;;;;;;;;;;2.70;99.90;;;;;;5112576;28;19924;-78
2020/12/05 10:30:26;;;;;;;;;;;2.80;99.90;;;;;;5112293;28;19963;-75
2020/12/05 10:32:53;;;;;;;;;;;2.90;99.90;;;;;;5112666;28;19931;-74
2020/12/05 10:35:19;;;;;;;;;;;3.00;99.90;;;;;;5110146;28;20379;-75
2020/12/05 10:37:46;;;;;;;;;;;3.10;99.90;;;;;;5112304;28;19932;-74
2020/12/05 10:40:12;;;;;;;;;;;3.20;99.90;;;;;;5110797;28;19930;-74
2020/12/05 10:42:38;;;;;;;;;;;3.10;99.90;;;;;;5094560;28;19924;-76
2020/12/05 10:45:05;;;;;;;;;;;3.30;99.90;;;;;;5092638;28;20421;-75
2020/12/05 10:47:31;;;;;;;;;;;3.20;99.90;;;;;;5112996;28;19923;-75
2020/12/05 10:49:58;;;;;;;;;;;3.10;99.90;;;;;;5109859;28;19924;-74
2020/12/05 10:52:25;;;;;;;;;;;3.20;99.90;;;;;;5112687;28;19928;-75
2020/12/05 10:54:51;;;;;;;;;;;3.10;99.90;;;;;;5109602;28;20022;-75
2020/12/05 10:57:17;;;;;;;;;;;3.10;99.90;;;;;;5112578;28;19976;-75
2020/12/05 10:59:44;;;;;;;;;;;3.10;99.90;;;;;;5091410;28;19934;-75
2020/12/05 11:02:10;;;;;;;;;;;3.10;99.90;;;;;;5113057;28;19969;-74
2020/12/05 11:04:37;;;;;;;;;;;3.00;99.90;;;;;;5109455;28;20011;-76
2020/12/05 11:07:05;;;;;;;;;;;2.90;99.90;;;;;;5094658;28;19974;-75
2020/12/05 11:09:32;;;;;;;;;;;2.80;99.90;;;;;;5094353;28;20019;-75
2020/12/05 11:11:58;;;;;;;;;;;2.80;99.90;;;;;;5110044;28;20330;-74
2020/12/05 11:14:25;;;;;;;;;;;2.60;99.90;;;;;;5114358;28;19924;-76
2020/12/05 11:16:51;;;;;;;;;;;2.60;99.90;;;;;;5109763;28;19930;-75
2020/12/05 11:19:17;;;;;;;;;;;2.80;99.90;;;;;;5112749;28;20021;-75
2020/12/05 11:21:44;;;;;;;;;;;2.60;99.90;;;;;;5108904;28;19927;-75
2020/12/05 11:24:12;;;;;;;;;;;2.70;99.90;;;;;;5112447;28;19923;-75
2020/12/05 11:26:38;;;;;;;;;;;2.70;99.90;;;;;;5091162;28;20301;-76
2020/12/05 11:29:04;;;;;;;;;;;2.50;99.90;;;;;;5112483;28;20457;-76
2020/12/05 11:31:31;;;;;;;;;;;2.60;99.90;;;;;;5109980;28;20015;-75
2020/12/05 11:33:57;;;;;;;;;;;2.50;99.90;;;;;;5111834;28;19924;-75
2020/12/05 11:36:24;;;;;;;;;;;2.50;99.90;;;;;;5110358;28;19924;-74
2020/12/05 11:38:50;;;;;;;;;;;2.50;99.90;;;;;;5112285;28;20048;-74
2020/12/05 11:41:17;;;;;;;;;;;2.50;99.90;;;;;;5110335;28;19931;-74
2020/12/05 11:43:44;;;;;;;;;;;2.50;99.90;;;;;;5112231;28;19981;-74
2020/12/05 11:46:12;;;;;;;;;;;2.60;99.90;;;;;;5110661;28;20007;-75
2020/12/05 11:48:38;;;;;;;;;;;2.60;99.90;;;;;;5116192;28;19924;-77
2020/12/05 11:51:05;;;;;;;;;;;2.60;99.90;;;;;;5116414;28;19924;-75
2020/12/05 11:53:31;;;;;;;;;;;2.60;99.90;;;;;;5114717;28;19924;-76
2020/12/05 11:55:57;;;;;;;;;;;2.70;99.90;;;;;;5097696;28;20371;-75
2020/12/05 11:58:25;;;;;;;;;;;2.70;99.90;;;;;;5113821;28;19923;-75
2020/12/05 12:00:51;;;;;;;;;;;2.60;99.90;;;;;;5115702;28;20365;-75
2020/12/05 12:03:17;;;;;;;;;;;2.60;99.90;;;;;;5113812;28;20332;-75
2020/12/05 12:05:44;;;;;;;;;;;2.60;99.90;;;;;;5115760;28;19928;-74
2020/12/05 12:08:10;;;;;;;;;;;2.70;99.90;;;;;;5095710;28;19928;-75
2020/12/05 12:10:37;;;;;;;;;;;2.80;99.90;;;;;;5115314;28;19924;-76
2020/12/05 12:13:04;;;;;;;;;;;2.80;99.90;;;;;;5113580;28;19967;-74
2020/12/05 12:15:31;;;;;;;;;;;2.80;99.90;;;;;;5115894;28;19974;-75
2020/12/05 12:17:58;;;;;;;;;;;2.80;99.90;;;;;;5113045;28;19931;-76
2020/12/05 12:20:24;;;;;;;;;;;2.80;99.90;;;;;;5116066;28;20463;-75
2020/12/05 12:22:51;;;;;;;;;;;2.70;99.90;;;;;;5113330;28;19932;-76
2020/12/05 12:25:17;;;;;;;;;;;2.80;99.90;;;;;;5116206;28;19924;-74
2020/12/05 12:27:44;;;;;;;;;;;2.80;99.90;;;;;;5112930;28;19928;-74
2020/12/05 12:30:10;;;;;;;;;;;2.80;99.90;;;;;;5115992;28;19931;-74
2020/12/05 12:32:37;;;;;;;;;;;2.80;99.90;;;;;;5114966;28;19985;-75
2020/12/05 12:35:04;;;;;;;;;;;2.80;99.90;;;;;;5112950;28;19977;-74
2020/12/05 12:37:30;;;;;;;;;;;2.80;99.90;;;;;;5115498;28;19984;-74
2020/12/05 12:39:57;;;;;;;;;;;2.90;99.90;;;;;;5112370;28;19977;-74
2020/12/05 12:42:25;;;;;;;;;;;2.90;99.90;;;;;;5097479;28;20014;-74
2020/12/05 12:44:52;;;;;;;;;;;3.00;99.90;;;;;;5112362;28;19924;-75
2020/12/05 12:47:37;;;;;;;;;;;3.00;99.90;;;;;;5115298;28;19931;-76
2020/12/05 12:50:05;;;;;;;;;;;3.00;99.90;;;;;;5112941;28;20038;-74
2020/12/05 12:52:31;;;;;;;;;;;3.00;99.90;;;;;;5097253;28;20034;-73
2020/12/05 12:54:58;;;;;;;;;;;3.10;99.90;;;;;;5128008;27;19931;-74
2020/12/05 12:57:28;;;;;;;;;;;3.10;99.90;;;;;;5114448;28;20018;-74
2020/12/05 12:59:54;;;;;;;;;;;3.20;99.90;;;;;;5093691;28;19963;-73
2020/12/05 13:02:21;;;;;;;;;;;3.20;99.90;;;;;;5096781;28;19930;-74
2020/12/05 13:04:47;;;;;;;;;;;3.20;99.90;;;;;;5093683;28;19924;-74
2020/12/05 13:07:14;;;;;;;;;;;3.20;99.90;;;;;;5096432;28;20022;-74
2020/12/05 13:09:41;;;;;;;;;;;3.30;99.90;;;;;;5093115;28;20281;-74
2020/12/05 13:12:07;;;;;;;;;;;3.30;99.90;;;;;;5114778;28;20340;-73
2020/12/05 13:14:33;;;;;;;;;;;3.30;99.90;;;;;;5112307;28;19924;-75
2020/12/05 13:17:00;;;;;;;;;;;3.40;99.90;;;;;;5114959;28;19990;-73
2020/12/05 13:19:26;;;;;;;;;;;3.40;99.90;;;;;;5114616;28;20042;-73
2020/12/05 13:21:54;;;;;;;;;;;3.40;99.90;;;;;;5111572;28;20285;-73
2020/12/05 13:24:22;;;;;;;;;;;3.30;99.90;;;;;;5114640;28;19968;-73
2020/12/05 13:26:49;;;;;;;;;;;3.30;99.90;;;;;;5110833;28;20373;-73
2020/12/05 13:29:15;;;;;;;;;;;3.40;99.90;;;;;;5114285;28;19931;-73
2020/12/05 13:31:42;;;;;;;;;;;3.40;99.90;;;;;;5111027;28;19967;-72
2020/12/05 13:34:08;;;;;;;;;;;3.50;99.90;;;;;;5096084;28;20338;-74
2020/12/05 13:36:34;;;;;;;;;;;3.40;99.90;;;;;;5111847;28;20041;-79
2020/12/05 13:39:01;;;;;;;;;;;3.50;99.90;;;;;;5114382;28;19927;-75
2020/12/05 13:41:29;;;;;;;;;;;3.50;99.90;;;;;;5111787;28;19924;-76
2020/12/05 13:43:59;;;;;;;;;;;3.30;99.90;;;;;;5113598;28;19930;-73
2020/12/05 13:46:25;;;;;;;;;;;3.30;99.90;;;;;;5111235;28;20441;-73
2020/12/05 13:48:52;;;;;;;;;;;3.20;99.90;;;;;;5113456;28;19927;-73
2020/12/05 13:51:18;;;;;;;;;;;3.20;99.90;;;;;;5111770;28;20030;-73
2020/12/05 13:53:44;;;;;;;;;;;3.20;99.90;;;;;;5095316;28;19993;-73
2020/12/05 13:56:12;;;;;;;;;;;3.20;99.90;;;;;;5093305;28;19931;-73
2020/12/05 13:58:39;;;;;;;;;;;3.30;99.90;;;;;;5094978;28;20439;-73
2020/12/05 14:01:05;;;;;;;;;;;3.30;99.90;;;;;;5113992;28;20303;-73
2020/12/05 14:03:32;;;;;;;;;;;3.30;99.90;;;;;;5110997;28;19924;-75
2020/12/05 14:05:58;;;;;;;;;;;3.30;99.90;;;;;;5112880;28;19981;-72
2020/12/05 14:08:25;;;;;;;;;;;3.30;99.90;;;;;;5110602;28;19985;-72
2020/12/05 14:10:51;;;;;;;;;;;3.30;99.90;;;;;;5112625;28;20407;-72
2020/12/05 14:13:19;;;;;;;;;;;3.40;99.90;;;;;;5110874;28;19950;-72
2020/12/05 14:15:46;;;;;;;;;;;3.50;99.90;;;;;;5112619;28;20580;-74
2020/12/05 14:18:13;;;;;;;;;;;3.50;99.90;;;;;;5111313;28;20014;-72
2020/12/05 14:20:39;;;;;;;;;;;3.50;99.90;;;;;;5094639;28;19973;-73
2020/12/05 14:23:05;;;;;;;;;;;3.60;99.90;;;;;;5111150;28;20372;-75
2020/12/05 14:25:32;;;;;;;;;;;3.60;99.90;;;;;;5113008;28;20391;-72
2020/12/05 14:27:58;;;;;;;;;;;3.70;99.90;;;;;;5110231;28;20022;-72
2020/12/05 14:30:24;;;;;;;;;;;3.70;99.90;;;;;;5113081;28;20403;-72
2020/12/05 14:32:53;;;;;;;;;;;3.70;99.90;;;;;;5110197;28;20070;-72